sensor_id;sensor_type;location;lat;lon;timestamp;P1;durP1;ratioP1;P2;durP2;ratioP2
45548;SDS011;31270;48.328;10.096;2023-05-07T00:01:58;8.83;;;7.90;;
45548;SDS011;31270;48.328;10.096;2023-05-07T00:04:25;9.50;;;7.87;;
45548;SDS011;31270;48.328;10.096;2023-05-07T00:06:51;9.00;;;8.07;;
45548;SDS011;31270;48.328;10.096;2023-05-07T00:09:16;10.33;;;8.77;;
45548;SDS011;31270;48.328;10.096;2023-05-07T00:11:42;11.53;;;9.00;;
45548;SDS011;31270;48.328;10.096;2023-05-07T00:14:07;10.23;;;8.73;;
45548;SDS011;31270;48.328;10.096;2023-05-07T00:16:34;11.27;;;9.40;;
45548;SDS011;31270;48.328;10.096;2023-05-07T00:19:01;11.10;;;8.87;;
45548;SDS011;31270;48.328;10.096;2023-05-07T00:21:26;10.43;;;8.73;;
45548;SDS011;31270;48.328;10.096;2023-05-07T00:23:52;10.77;;;9.57;;
45548;SDS011;31270;48.328;10.096;2023-05-07T00:26:19;11.90;;;10.40;;
45548;SDS011;31270;48.328;10.096;2023-05-07T00:28:46;11.93;;;10.17;;
45548;SDS011;31270;48.328;10.096;2023-05-07T00:31:12;14.47;;;10.93;;
45548;SDS011;31270;48.328;10.096;2023-05-07T00:33:38;16.47;;;10.57;;
45548;SDS011;31270;48.328;10.096;2023-05-07T00:36:04;15.00;;;11.50;;
45548;SDS011;31270;48.328;10.096;2023-05-07T00:38:29;17.67;;;11.37;;
45548;SDS011;31270;48.328;10.096;2023-05-07T00:40:55;13.63;;;10.77;;
45548;SDS011;31270;48.328;10.096;2023-05-07T00:43:21;10.83;;;9.70;;
45548;SDS011;31270;48.328;10.096;2023-05-07T00:45:48;15.83;;;10.90;;
45548;SDS011;31270;48.328;10.096;2023-05-07T00:48:13;12.30;;;10.17;;
45548;SDS011;31270;48.328;10.096;2023-05-07T00:50:39;12.83;;;10.87;;
45548;SDS011;31270;48.328;10.096;2023-05-07T00:53:05;13.27;;;10.63;;
45548;SDS011;31270;48.328;10.096;2023-05-07T00:55:32;14.50;;;10.77;;
45548;SDS011;31270;48.328;10.096;2023-05-07T00:57:58;12.57;;;10.53;;
45548;SDS011;31270;48.328;10.096;2023-05-07T01:00:23;14.50;;;10.73;;
45548;SDS011;31270;48.328;10.096;2023-05-07T01:02:50;14.13;;;10.07;;
45548;SDS011;31270;48.328;10.096;2023-05-07T01:05:17;15.90;;;10.47;;
45548;SDS011;31270;48.328;10.096;2023-05-07T01:07:44;13.93;;;11.53;;
45548;SDS011;31270;48.328;10.096;2023-05-07T01:10:11;17.07;;;12.00;;
45548;SDS011;31270;48.328;10.096;2023-05-07T01:12:37;13.67;;;11.43;;
45548;SDS011;31270;48.328;10.096;2023-05-07T01:15:06;12.80;;;10.47;;
45548;SDS011;31270;48.328;10.096;2023-05-07T01:17:34;13.20;;;10.70;;
45548;SDS011;31270;48.328;10.096;2023-05-07T01:20:00;14.93;;;11.60;;
45548;SDS011;31270;48.328;10.096;2023-05-07T01:22:33;13.33;;;11.00;;
45548;SDS011;31270;48.328;10.096;2023-05-07T01:25:01;12.30;;;10.97;;
45548;SDS011;31270;48.328;10.096;2023-05-07T01:27:27;14.13;;;11.37;;
45548;SDS011;31270;48.328;10.096;2023-05-07T01:29:54;13.60;;;11.53;;
45548;SDS011;31270;48.328;10.096;2023-05-07T01:32:27;12.77;;;10.90;;
45548;SDS011;31270;48.328;10.096;2023-05-07T01:34:58;12.67;;;11.10;;
45548;SDS011;31270;48.328;10.096;2023-05-07T01:37:26;13.10;;;11.23;;
45548;SDS011;31270;48.328;10.096;2023-05-07T01:39:52;14.33;;;12.03;;
45548;SDS011;31270;48.328;10.096;2023-05-07T01:42:18;15.53;;;11.67;;
45548;SDS011;31270;48.328;10.096;2023-05-07T01:44:44;15.23;;;11.30;;
45548;SDS011;31270;48.328;10.096;2023-05-07T01:47:11;14.20;;;12.23;;
45548;SDS011;31270;48.328;10.096;2023-05-07T01:49:37;15.57;;;11.57;;
45548;SDS011;31270;48.328;10.096;2023-05-07T01:52:04;15.00;;;12.03;;
45548;SDS011;31270;48.328;10.096;2023-05-07T01:54:30;14.87;;;12.47;;
45548;SDS011;31270;48.328;10.096;2023-05-07T01:56:57;13.27;;;11.20;;
45548;SDS011;31270;48.328;10.096;2023-05-07T01:59:22;13.47;;;11.27;;
45548;SDS011;31270;48.328;10.096;2023-05-07T02:01:48;14.80;;;11.10;;
45548;SDS011;31270;48.328;10.096;2023-05-07T02:04:14;13.27;;;11.13;;
45548;SDS011;31270;48.328;10.096;2023-05-07T02:06:39;16.80;;;10.90;;
45548;SDS011;31270;48.328;10.096;2023-05-07T02:09:05;15.13;;;10.80;;
45548;SDS011;31270;48.328;10.096;2023-05-07T02:11:31;12.70;;;9.97;;
45548;SDS011;31270;48.328;10.096;2023-05-07T02:13:57;15.63;;;11.10;;
45548;SDS011;31270;48.328;10.096;2023-05-07T02:16:23;14.30;;;11.60;;
45548;SDS011;31270;48.328;10.096;2023-05-07T02:18:49;13.83;;;11.27;;
45548;SDS011;31270;48.328;10.096;2023-05-07T02:21:14;16.67;;;11.40;;
45548;SDS011;31270;48.328;10.096;2023-05-07T02:23:40;13.43;;;11.53;;
45548;SDS011;31270;48.328;10.096;2023-05-07T02:26:05;12.27;;;10.67;;
45548;SDS011;31270;48.328;10.096;2023-05-07T02:28:32;11.73;;;10.40;;
45548;SDS011;31270;48.328;10.096;2023-05-07T02:31:00;16.67;;;11.00;;
45548;SDS011;31270;48.328;10.096;2023-05-07T02:33:27;13.93;;;10.83;;
45548;SDS011;31270;48.328;10.096;2023-05-07T02:35:53;14.73;;;11.30;;
45548;SDS011;31270;48.328;10.096;2023-05-07T02:38:18;13.40;;;10.17;;
45548;SDS011;31270;48.328;10.096;2023-05-07T02:40:44;11.93;;;10.07;;
45548;SDS011;31270;48.328;10.096;2023-05-07T02:43:09;14.20;;;9.77;;
45548;SDS011;31270;48.328;10.096;2023-05-07T02:45:35;13.80;;;9.37;;
45548;SDS011;31270;48.328;10.096;2023-05-07T02:48:02;12.30;;;9.67;;
45548;SDS011;31270;48.328;10.096;2023-05-07T02:50:28;14.93;;;9.30;;
45548;SDS011;31270;48.328;10.096;2023-05-07T02:52:55;11.40;;;9.43;;
45548;SDS011;31270;48.328;10.096;2023-05-07T02:55:21;11.30;;;9.93;;
45548;SDS011;31270;48.328;10.096;2023-05-07T02:57:47;11.93;;;9.73;;
45548;SDS011;31270;48.328;10.096;2023-05-07T03:00:13;13.63;;;9.73;;
45548;SDS011;31270;48.328;10.096;2023-05-07T03:02:40;9.70;;;8.70;;
45548;SDS011;31270;48.328;10.096;2023-05-07T03:05:06;12.57;;;9.40;;
45548;SDS011;31270;48.328;10.096;2023-05-07T03:07:34;11.70;;;9.83;;
45548;SDS011;31270;48.328;10.096;2023-05-07T03:10:00;14.30;;;10.57;;
45548;SDS011;31270;48.328;10.096;2023-05-07T03:12:26;13.67;;;10.37;;
45548;SDS011;31270;48.328;10.096;2023-05-07T03:14:51;13.57;;;11.13;;
45548;SDS011;31270;48.328;10.096;2023-05-07T03:17:18;12.80;;;9.80;;
45548;SDS011;31270;48.328;10.096;2023-05-07T03:19:44;12.43;;;10.57;;
45548;SDS011;31270;48.328;10.096;2023-05-07T03:22:09;12.03;;;10.40;;
45548;SDS011;31270;48.328;10.096;2023-05-07T03:24:36;14.30;;;9.93;;
45548;SDS011;31270;48.328;10.096;2023-05-07T03:27:01;10.17;;;9.10;;
45548;SDS011;31270;48.328;10.096;2023-05-07T03:29:27;14.83;;;10.53;;
45548;SDS011;31270;48.328;10.096;2023-05-07T03:31:53;12.13;;;10.23;;
45548;SDS011;31270;48.328;10.096;2023-05-07T03:34:18;12.73;;;9.97;;
45548;SDS011;31270;48.328;10.096;2023-05-07T03:36:50;15.63;;;10.80;;
45548;SDS011;31270;48.328;10.096;2023-05-07T03:39:17;13.03;;;10.40;;
45548;SDS011;31270;48.328;10.096;2023-05-07T03:41:42;11.97;;;10.37;;
45548;SDS011;31270;48.328;10.096;2023-05-07T03:44:08;14.90;;;10.23;;
45548;SDS011;31270;48.328;10.096;2023-05-07T03:46:34;12.63;;;10.50;;
45548;SDS011;31270;48.328;10.096;2023-05-07T03:49:00;12.47;;;9.87;;
45548;SDS011;31270;48.328;10.096;2023-05-07T03:51:26;13.90;;;10.20;;
45548;SDS011;31270;48.328;10.096;2023-05-07T03:53:52;14.53;;;10.40;;
45548;SDS011;31270;48.328;10.096;2023-05-07T03:56:18;13.80;;;10.80;;
45548;SDS011;31270;48.328;10.096;2023-05-07T03:58:44;12.00;;;10.33;;
45548;SDS011;31270;48.328;10.096;2023-05-07T04:01:10;12.30;;;10.97;;
45548;SDS011;31270;48.328;10.096;2023-05-07T04:03:36;13.23;;;11.13;;
45548;SDS011;31270;48.328;10.096;2023-05-07T04:06:02;14.20;;;10.97;;
45548;SDS011;31270;48.328;10.096;2023-05-07T04:08:28;15.37;;;11.63;;
45548;SDS011;31270;48.328;10.096;2023-05-07T04:10:57;14.03;;;11.60;;
45548;SDS011;31270;48.328;10.096;2023-05-07T04:13:23;12.67;;;11.23;;
45548;SDS011;31270;48.328;10.096;2023-05-07T04:15:50;14.80;;;11.13;;
45548;SDS011;31270;48.328;10.096;2023-05-07T04:18:16;13.43;;;11.37;;
45548;SDS011;31270;48.328;10.096;2023-05-07T04:20:41;15.10;;;11.37;;
45548;SDS011;31270;48.328;10.096;2023-05-07T04:23:07;14.90;;;12.03;;
45548;SDS011;31270;48.328;10.096;2023-05-07T04:25:33;14.97;;;11.67;;
45548;SDS011;31270;48.328;10.096;2023-05-07T04:27:59;18.03;;;12.07;;
45548;SDS011;31270;48.328;10.096;2023-05-07T04:30:25;16.13;;;12.33;;
45548;SDS011;31270;48.328;10.096;2023-05-07T04:32:50;16.23;;;11.60;;
45548;SDS011;31270;48.328;10.096;2023-05-07T04:35:17;16.90;;;12.80;;
45548;SDS011;31270;48.328;10.096;2023-05-07T04:37:43;17.93;;;12.83;;
45548;SDS011;31270;48.328;10.096;2023-05-07T04:40:09;16.83;;;13.30;;
45548;SDS011;31270;48.328;10.096;2023-05-07T04:42:35;17.57;;;13.80;;
45548;SDS011;31270;48.328;10.096;2023-05-07T04:45:02;18.27;;;12.57;;
45548;SDS011;31270;48.328;10.096;2023-05-07T04:47:28;16.30;;;12.30;;
45548;SDS011;31270;48.328;10.096;2023-05-07T04:49:54;17.37;;;12.73;;
45548;SDS011;31270;48.328;10.096;2023-05-07T04:52:20;14.70;;;12.23;;
45548;SDS011;31270;48.328;10.096;2023-05-07T04:54:46;15.50;;;11.73;;
45548;SDS011;31270;48.328;10.096;2023-05-07T04:57:12;14.47;;;11.90;;
45548;SDS011;31270;48.328;10.096;2023-05-07T04:59:39;14.47;;;11.40;;
45548;SDS011;31270;48.328;10.096;2023-05-07T05:02:05;24.37;;;11.07;;
45548;SDS011;31270;48.328;10.096;2023-05-07T05:04:30;13.97;;;11.37;;
45548;SDS011;31270;48.328;10.096;2023-05-07T05:06:56;13.10;;;11.33;;
45548;SDS011;31270;48.328;10.096;2023-05-07T05:09:22;12.63;;;10.70;;
45548;SDS011;31270;48.328;10.096;2023-05-07T05:11:47;13.50;;;11.13;;
45548;SDS011;31270;48.328;10.096;2023-05-07T05:14:13;11.03;;;9.80;;
45548;SDS011;31270;48.328;10.096;2023-05-07T05:16:44;11.70;;;9.90;;
45548;SDS011;31270;48.328;10.096;2023-05-07T05:19:10;12.13;;;10.47;;
45548;SDS011;31270;48.328;10.096;2023-05-07T05:21:35;11.53;;;9.53;;
45548;SDS011;31270;48.328;10.096;2023-05-07T05:24:01;11.97;;;9.90;;
45548;SDS011;31270;48.328;10.096;2023-05-07T05:26:27;11.23;;;10.13;;
45548;SDS011;31270;48.328;10.096;2023-05-07T05:28:52;13.07;;;10.07;;
45548;SDS011;31270;48.328;10.096;2023-05-07T05:31:18;12.50;;;10.60;;
45548;SDS011;31270;48.328;10.096;2023-05-07T05:33:44;12.00;;;9.87;;
45548;SDS011;31270;48.328;10.096;2023-05-07T05:36:10;12.90;;;10.00;;
45548;SDS011;31270;48.328;10.096;2023-05-07T05:38:38;11.70;;;9.30;;
45548;SDS011;31270;48.328;10.096;2023-05-07T05:41:04;11.73;;;9.67;;
45548;SDS011;31270;48.328;10.096;2023-05-07T05:43:29;13.37;;;9.83;;
45548;SDS011;31270;48.328;10.096;2023-05-07T05:45:55;13.00;;;9.27;;
45548;SDS011;31270;48.328;10.096;2023-05-07T05:48:21;11.27;;;9.83;;
45548;SDS011;31270;48.328;10.096;2023-05-07T05:50:48;11.17;;;9.63;;
45548;SDS011;31270;48.328;10.096;2023-05-07T05:53:14;11.40;;;9.83;;
45548;SDS011;31270;48.328;10.096;2023-05-07T05:55:41;10.57;;;9.47;;
45548;SDS011;31270;48.328;10.096;2023-05-07T05:58:08;9.98;;;8.93;;
45548;SDS011;31270;48.328;10.096;2023-05-07T06:00:34;10.27;;;9.27;;
45548;SDS011;31270;48.328;10.096;2023-05-07T06:03:00;11.30;;;10.15;;
45548;SDS011;31270;48.328;10.096;2023-05-07T06:05:26;10.63;;;9.45;;
45548;SDS011;31270;48.328;10.096;2023-05-07T06:07:52;11.45;;;8.10;;
45548;SDS011;31270;48.328;10.096;2023-05-07T06:10:18;9.38;;;8.45;;
45548;SDS011;31270;48.328;10.096;2023-05-07T06:12:43;11.00;;;9.02;;
45548;SDS011;31270;48.328;10.096;2023-05-07T06:15:09;10.02;;;9.02;;
45548;SDS011;31270;48.328;10.096;2023-05-07T06:17:35;9.00;;;8.10;;
45548;SDS011;31270;48.328;10.096;2023-05-07T06:20:01;9.52;;;8.63;;
45548;SDS011;31270;48.328;10.096;2023-05-07T06:22:26;11.25;;;8.80;;
45548;SDS011;31270;48.328;10.096;2023-05-07T06:24:52;9.43;;;8.48;;
45548;SDS011;31270;48.328;10.096;2023-05-07T06:27:18;10.57;;;8.50;;
45548;SDS011;31270;48.328;10.096;2023-05-07T06:29:43;9.77;;;8.77;;
45548;SDS011;31270;48.328;10.096;2023-05-07T06:32:10;14.20;;;8.10;;
45548;SDS011;31270;48.328;10.096;2023-05-07T06:34:37;9.25;;;8.30;;
45548;SDS011;31270;48.328;10.096;2023-05-07T06:37:03;11.23;;;8.57;;
45548;SDS011;31270;48.328;10.096;2023-05-07T06:39:29;9.45;;;8.45;;
45548;SDS011;31270;48.328;10.096;2023-05-07T06:41:55;9.40;;;7.88;;
45548;SDS011;31270;48.328;10.096;2023-05-07T06:44:21;7.53;;;6.78;;
45548;SDS011;31270;48.328;10.096;2023-05-07T06:46:47;9.90;;;7.50;;
45548;SDS011;31270;48.328;10.096;2023-05-07T06:49:13;8.93;;;8.05;;
45548;SDS011;31270;48.328;10.096;2023-05-07T06:51:39;9.13;;;8.23;;
45548;SDS011;31270;48.328;10.096;2023-05-07T06:54:05;10.73;;;7.10;;
45548;SDS011;31270;48.328;10.096;2023-05-07T06:56:31;8.95;;;7.75;;
45548;SDS011;31270;48.328;10.096;2023-05-07T06:58:57;8.20;;;7.38;;
45548;SDS011;31270;48.328;10.096;2023-05-07T07:01:24;8.40;;;7.60;;
45548;SDS011;31270;48.328;10.096;2023-05-07T07:03:51;11.25;;;8.27;;
45548;SDS011;31270;48.328;10.096;2023-05-07T07:06:17;8.90;;;8.00;;
45548;SDS011;31270;48.328;10.096;2023-05-07T07:08:43;8.65;;;7.85;;
45548;SDS011;31270;48.328;10.096;2023-05-07T07:11:09;8.25;;;7.10;;
45548;SDS011;31270;48.328;10.096;2023-05-07T07:13:35;8.13;;;7.43;;
45548;SDS011;31270;48.328;10.096;2023-05-07T07:16:01;8.70;;;7.80;;
45548;SDS011;31270;48.328;10.096;2023-05-07T07:18:26;7.43;;;6.70;;
45548;SDS011;31270;48.328;10.096;2023-05-07T07:20:52;8.30;;;7.47;;
45548;SDS011;31270;48.328;10.096;2023-05-07T07:23:18;8.27;;;7.47;;
45548;SDS011;31270;48.328;10.096;2023-05-07T07:25:44;10.15;;;7.85;;
45548;SDS011;31270;48.328;10.096;2023-05-07T07:28:09;9.27;;;7.22;;
45548;SDS011;31270;48.328;10.096;2023-05-07T07:30:36;8.95;;;8.02;;
45548;SDS011;31270;48.328;10.096;2023-05-07T07:33:02;8.10;;;7.18;;
45548;SDS011;31270;48.328;10.096;2023-05-07T07:35:29;9.27;;;7.65;;
45548;SDS011;31270;48.328;10.096;2023-05-07T07:37:55;8.30;;;7.50;;
45548;SDS011;31270;48.328;10.096;2023-05-07T07:40:22;8.52;;;7.60;;
45548;SDS011;31270;48.328;10.096;2023-05-07T07:42:47;8.00;;;7.25;;
45548;SDS011;31270;48.328;10.096;2023-05-07T07:45:13;10.68;;;8.32;;
45548;SDS011;31270;48.328;10.096;2023-05-07T07:47:39;11.77;;;8.38;;
45548;SDS011;31270;48.328;10.096;2023-05-07T07:50:06;9.10;;;8.25;;
45548;SDS011;31270;48.328;10.096;2023-05-07T07:52:32;9.30;;;7.72;;
45548;SDS011;31270;48.328;10.096;2023-05-07T07:54:58;9.82;;;8.57;;
45548;SDS011;31270;48.328;10.096;2023-05-07T07:57:24;9.48;;;7.55;;
45548;SDS011;31270;48.328;10.096;2023-05-07T07:59:50;8.65;;;7.75;;
45548;SDS011;31270;48.328;10.096;2023-05-07T08:02:15;8.98;;;8.07;;
45548;SDS011;31270;48.328;10.096;2023-05-07T08:04:41;10.27;;;8.57;;
45548;SDS011;31270;48.328;10.096;2023-05-07T08:07:12;8.98;;;8.02;;
45548;SDS011;31270;48.328;10.096;2023-05-07T08:09:38;9.30;;;7.25;;
45548;SDS011;31270;48.328;10.096;2023-05-07T08:12:04;9.82;;;8.45;;
45548;SDS011;31270;48.328;10.096;2023-05-07T08:14:31;9.55;;;8.52;;
45548;SDS011;31270;48.328;10.096;2023-05-07T08:16:56;9.23;;;8.32;;
45548;SDS011;31270;48.328;10.096;2023-05-07T08:19:22;8.88;;;7.80;;
45548;SDS011;31270;48.328;10.096;2023-05-07T08:21:47;9.75;;;8.57;;
45548;SDS011;31270;48.328;10.096;2023-05-07T08:24:14;9.38;;;8.40;;
45548;SDS011;31270;48.328;10.096;2023-05-07T08:26:40;9.10;;;8.20;;
45548;SDS011;31270;48.328;10.096;2023-05-07T08:29:06;8.48;;;7.43;;
45548;SDS011;31270;48.328;10.096;2023-05-07T08:31:32;8.93;;;8.00;;
45548;SDS011;31270;48.328;10.096;2023-05-07T08:33:58;8.32;;;7.50;;
45548;SDS011;31270;48.328;10.096;2023-05-07T08:36:24;8.25;;;7.50;;
45548;SDS011;31270;48.328;10.096;2023-05-07T08:38:51;8.77;;;7.78;;
45548;SDS011;31270;48.328;10.096;2023-05-07T08:41:17;10.27;;;7.95;;
45548;SDS011;31270;48.328;10.096;2023-05-07T08:43:44;9.38;;;8.15;;
45548;SDS011;31270;48.328;10.096;2023-05-07T08:46:16;7.72;;;7.03;;
45548;SDS011;31270;48.328;10.096;2023-05-07T08:48:44;7.97;;;7.18;;
45548;SDS011;31270;48.328;10.096;2023-05-07T08:51:12;8.23;;;7.22;;
45548;SDS011;31270;48.328;10.096;2023-05-07T08:53:40;8.07;;;7.28;;
45548;SDS011;31270;48.328;10.096;2023-05-07T08:56:07;8.55;;;6.90;;
45548;SDS011;31270;48.328;10.096;2023-05-07T08:58:34;7.70;;;6.97;;
45548;SDS011;31270;48.328;10.096;2023-05-07T09:01:07;10.50;;;8.60;;
45548;SDS011;31270;48.328;10.096;2023-05-07T09:03:34;9.15;;;7.65;;
45548;SDS011;31270;48.328;10.096;2023-05-07T09:06:01;7.15;;;6.50;;
45548;SDS011;31270;48.328;10.096;2023-05-07T09:08:27;7.88;;;6.00;;
45548;SDS011;31270;48.328;10.096;2023-05-07T09:10:53;7.82;;;6.80;;
45548;SDS011;31270;48.328;10.096;2023-05-07T09:13:19;7.88;;;7.15;;
45548;SDS011;31270;48.328;10.096;2023-05-07T09:15:45;8.68;;;7.38;;
45548;SDS011;31270;48.328;10.096;2023-05-07T09:18:14;8.80;;;6.57;;
45548;SDS011;31270;48.328;10.096;2023-05-07T09:20:40;7.57;;;6.65;;
45548;SDS011;31270;48.328;10.096;2023-05-07T09:23:06;6.55;;;5.95;;
45548;SDS011;31270;48.328;10.096;2023-05-07T09:25:33;6.93;;;5.65;;
45548;SDS011;31270;48.328;10.096;2023-05-07T09:28:00;6.40;;;5.80;;
45548;SDS011;31270;48.328;10.096;2023-05-07T09:30:28;6.13;;;5.60;;
45548;SDS011;31270;48.328;10.096;2023-05-07T09:32:55;6.63;;;5.60;;
45548;SDS011;31270;48.328;10.096;2023-05-07T09:35:21;8.77;;;6.47;;
45548;SDS011;31270;48.328;10.096;2023-05-07T09:37:49;7.38;;;6.35;;
45548;SDS011;31270;48.328;10.096;2023-05-07T09:40:25;6.82;;;6.22;;
45548;SDS011;31270;48.328;10.096;2023-05-07T09:42:52;7.07;;;5.97;;
45548;SDS011;31270;48.328;10.096;2023-05-07T09:45:25;7.50;;;5.97;;
45548;SDS011;31270;48.328;10.096;2023-05-07T09:47:55;6.00;;;5.50;;
45548;SDS011;31270;48.328;10.096;2023-05-07T09:50:29;6.60;;;5.65;;
45548;SDS011;31270;48.328;10.096;2023-05-07T09:52:57;5.45;;;4.93;;
45548;SDS011;31270;48.328;10.096;2023-05-07T09:55:25;5.43;;;4.93;;
45548;SDS011;31270;48.328;10.096;2023-05-07T09:57:51;5.55;;;4.60;;
45548;SDS011;31270;48.328;10.096;2023-05-07T10:00:19;5.10;;;4.60;;
45548;SDS011;31270;48.328;10.096;2023-05-07T10:02:46;5.80;;;4.50;;
45548;SDS011;31270;48.328;10.096;2023-05-07T10:05:17;5.75;;;5.15;;
45548;SDS011;31270;48.328;10.096;2023-05-07T10:07:45;5.40;;;4.90;;
45548;SDS011;31270;48.328;10.096;2023-05-07T10:10:11;5.82;;;4.68;;
45548;SDS011;31270;48.328;10.096;2023-05-07T10:12:37;4.90;;;4.50;;
45548;SDS011;31270;48.328;10.096;2023-05-07T10:15:08;4.80;;;4.40;;
45548;SDS011;31270;48.328;10.096;2023-05-07T10:17:38;4.50;;;4.10;;
45548;SDS011;31270;48.328;10.096;2023-05-07T10:20:04;5.18;;;4.45;;
45548;SDS011;31270;48.328;10.096;2023-05-07T10:22:32;4.30;;;3.90;;
45548;SDS011;31270;48.328;10.096;2023-05-07T10:25:04;4.40;;;4.00;;
45548;SDS011;31270;48.328;10.096;2023-05-07T10:27:39;5.40;;;3.72;;
45548;SDS011;31270;48.328;10.096;2023-05-07T10:35:20;5.53;;;5.03;;
45548;SDS011;31270;48.328;10.096;2023-05-07T10:37:49;4.82;;;3.90;;
45548;SDS011;31270;48.328;10.096;2023-05-07T10:40:15;3.60;;;3.30;;
45548;SDS011;31270;48.328;10.096;2023-05-07T10:45:27;5.63;;;4.15;;
45548;SDS011;31270;48.328;10.096;2023-05-07T10:48:13;4.60;;;4.20;;
45548;SDS011;31270;48.328;10.096;2023-05-07T10:50:40;4.30;;;3.90;;
45548;SDS011;31270;48.328;10.096;2023-05-07T10:55:42;4.50;;;3.80;;
45548;SDS011;31270;48.328;10.096;2023-05-07T10:58:22;5.00;;;3.40;;
45548;SDS011;31270;48.328;10.096;2023-05-07T11:00:48;4.60;;;3.88;;
45548;SDS011;31270;48.328;10.096;2023-05-07T11:03:14;5.00;;;4.50;;
45548;SDS011;31270;48.328;10.096;2023-05-07T11:05:41;4.55;;;4.03;;
45548;SDS011;31270;48.328;10.096;2023-05-07T11:08:07;4.55;;;4.15;;
45548;SDS011;31270;48.328;10.096;2023-05-07T11:10:53;4.72;;;4.32;;
45548;SDS011;31270;48.328;10.096;2023-05-07T11:13:42;4.50;;;4.07;;
45548;SDS011;31270;48.328;10.096;2023-05-07T11:16:17;5.85;;;4.00;;
45548;SDS011;31270;48.328;10.096;2023-05-07T11:18:47;4.47;;;3.85;;
45548;SDS011;31270;48.328;10.096;2023-05-07T11:21:37;5.20;;;4.35;;
45548;SDS011;31270;48.328;10.096;2023-05-07T11:24:05;4.82;;;3.92;;
45548;SDS011;31270;48.328;10.096;2023-05-07T11:26:48;5.72;;;4.20;;
45548;SDS011;31270;48.328;10.096;2023-05-07T11:29:18;4.47;;;4.00;;
45548;SDS011;31270;48.328;10.096;2023-05-07T11:31:54;4.57;;;4.18;;
45548;SDS011;31270;48.328;10.096;2023-05-07T11:34:21;3.58;;;3.22;;
45548;SDS011;31270;48.328;10.096;2023-05-07T11:36:48;6.80;;;3.90;;
45548;SDS011;31270;48.328;10.096;2023-05-07T11:39:23;3.75;;;3.33;;
45548;SDS011;31270;48.328;10.096;2023-05-07T11:41:59;6.47;;;3.80;;
45548;SDS011;31270;48.328;10.096;2023-05-07T11:44:25;4.15;;;3.80;;
45548;SDS011;31270;48.328;10.096;2023-05-07T11:47:04;6.35;;;3.90;;
45548;SDS011;31270;48.328;10.096;2023-05-07T11:49:30;3.88;;;3.38;;
45548;SDS011;31270;48.328;10.096;2023-05-07T11:51:56;3.78;;;3.38;;
45548;SDS011;31270;48.328;10.096;2023-05-07T11:54:22;3.90;;;3.47;;
45548;SDS011;31270;48.328;10.096;2023-05-07T11:56:48;6.28;;;3.47;;
45548;SDS011;31270;48.328;10.096;2023-05-07T11:59:17;8.57;;;3.47;;
45548;SDS011;31270;48.328;10.096;2023-05-07T12:01:45;5.25;;;3.50;;
45548;SDS011;31270;48.328;10.096;2023-05-07T12:04:11;5.07;;;3.70;;
45548;SDS011;31270;48.328;10.096;2023-05-07T12:06:38;4.53;;;3.38;;
45548;SDS011;31270;48.328;10.096;2023-05-07T12:09:04;5.55;;;3.25;;
45548;SDS011;31270;48.328;10.096;2023-05-07T12:11:32;3.50;;;3.20;;
45548;SDS011;31270;48.328;10.096;2023-05-07T12:13:57;3.83;;;2.90;;
45548;SDS011;31270;48.328;10.096;2023-05-07T12:16:23;3.38;;;2.95;;
45548;SDS011;31270;48.328;10.096;2023-05-07T12:18:50;4.82;;;3.40;;
45548;SDS011;31270;48.328;10.096;2023-05-07T12:21:17;3.67;;;3.00;;
45548;SDS011;31270;48.328;10.096;2023-05-07T12:23:43;4.72;;;2.92;;
45548;SDS011;31270;48.328;10.096;2023-05-07T12:26:10;5.22;;;2.97;;
45548;SDS011;31270;48.328;10.096;2023-05-07T12:28:37;3.90;;;2.67;;
45548;SDS011;31270;48.328;10.096;2023-05-07T12:31:04;4.05;;;2.92;;
45548;SDS011;31270;48.328;10.096;2023-05-07T12:33:30;3.05;;;2.85;;
45548;SDS011;31270;48.328;10.096;2023-05-07T12:35:57;3.22;;;2.97;;
45548;SDS011;31270;48.328;10.096;2023-05-07T12:38:27;3.28;;;2.97;;
45548;SDS011;31270;48.328;10.096;2023-05-07T12:41:06;3.80;;;3.40;;
45548;SDS011;31270;48.328;10.096;2023-05-07T12:43:33;3.38;;;2.90;;
45548;SDS011;31270;48.328;10.096;2023-05-07T12:46:06;3.85;;;3.10;;
45548;SDS011;31270;48.328;10.096;2023-05-07T12:48:32;4.30;;;3.17;;
45548;SDS011;31270;48.328;10.096;2023-05-07T12:51:01;4.28;;;3.45;;
45548;SDS011;31270;48.328;10.096;2023-05-07T12:53:28;5.65;;;3.33;;
45548;SDS011;31270;48.328;10.096;2023-05-07T12:55:56;4.97;;;3.30;;
45548;SDS011;31270;48.328;10.096;2023-05-07T12:58:24;3.40;;;3.10;;
45548;SDS011;31270;48.328;10.096;2023-05-07T13:00:51;4.93;;;3.33;;
45548;SDS011;31270;48.328;10.096;2023-05-07T13:03:21;4.93;;;3.30;;
45548;SDS011;31270;48.328;10.096;2023-05-07T13:05:48;4.07;;;3.38;;
45548;SDS011;31270;48.328;10.096;2023-05-07T13:08:23;6.63;;;3.35;;
45548;SDS011;31270;48.328;10.096;2023-05-07T13:10:52;4.80;;;3.25;;
45548;SDS011;31270;48.328;10.096;2023-05-07T13:13:18;3.20;;;2.95;;
45548;SDS011;31270;48.328;10.096;2023-05-07T13:15:46;5.05;;;3.10;;
45548;SDS011;31270;48.328;10.096;2023-05-07T13:18:12;4.85;;;3.25;;
45548;SDS011;31270;48.328;10.096;2023-05-07T13:20:38;4.35;;;3.22;;
45548;SDS011;31270;48.328;10.096;2023-05-07T13:23:03;3.40;;;3.10;;
45548;SDS011;31270;48.328;10.096;2023-05-07T13:25:29;3.90;;;3.10;;
45548;SDS011;31270;48.328;10.096;2023-05-07T13:27:59;3.30;;;2.92;;
45548;SDS011;31270;48.328;10.096;2023-05-07T13:30:25;3.13;;;2.80;;
45548;SDS011;31270;48.328;10.096;2023-05-07T13:32:51;6.07;;;3.15;;
45548;SDS011;31270;48.328;10.096;2023-05-07T13:35:19;3.13;;;2.90;;
45548;SDS011;31270;48.328;10.096;2023-05-07T13:37:45;3.30;;;2.97;;
45548;SDS011;31270;48.328;10.096;2023-05-07T13:40:11;3.72;;;3.38;;
45548;SDS011;31270;48.328;10.096;2023-05-07T13:42:37;3.42;;;3.13;;
45548;SDS011;31270;48.328;10.096;2023-05-07T13:45:03;5.13;;;3.00;;
45548;SDS011;31270;48.328;10.096;2023-05-07T13:47:30;5.55;;;3.20;;
45548;SDS011;31270;48.328;10.096;2023-05-07T13:49:56;3.50;;;3.20;;
45548;SDS011;31270;48.328;10.096;2023-05-07T13:52:22;5.35;;;3.35;;
45548;SDS011;31270;48.328;10.096;2023-05-07T13:54:48;2.78;;;2.55;;
45548;SDS011;31270;48.328;10.096;2023-05-07T13:57:14;3.25;;;2.95;;
45548;SDS011;31270;48.328;10.096;2023-05-07T13:59:40;3.60;;;3.30;;
45548;SDS011;31270;48.328;10.096;2023-05-07T14:02:06;5.28;;;3.88;;
45548;SDS011;31270;48.328;10.096;2023-05-07T14:04:31;6.20;;;2.80;;
45548;SDS011;31270;48.328;10.096;2023-05-07T14:06:57;9.20;;;3.80;;
45548;SDS011;31270;48.328;10.096;2023-05-07T14:09:23;3.28;;;2.83;;
45548;SDS011;31270;48.328;10.096;2023-05-07T14:11:48;3.78;;;2.92;;
45548;SDS011;31270;48.328;10.096;2023-05-07T14:14:16;3.55;;;2.67;;
45548;SDS011;31270;48.328;10.096;2023-05-07T14:16:42;4.22;;;3.08;;
45548;SDS011;31270;48.328;10.096;2023-05-07T14:19:08;3.50;;;3.20;;
45548;SDS011;31270;48.328;10.096;2023-05-07T14:21:34;3.15;;;2.85;;
45548;SDS011;31270;48.328;10.096;2023-05-07T14:24:00;3.40;;;3.10;;
45548;SDS011;31270;48.328;10.096;2023-05-07T14:26:26;3.38;;;2.90;;
45548;SDS011;31270;48.328;10.096;2023-05-07T14:28:52;3.40;;;2.63;;
45548;SDS011;31270;48.328;10.096;2023-05-07T14:31:20;3.20;;;2.80;;
45548;SDS011;31270;48.328;10.096;2023-05-07T14:33:46;3.20;;;2.80;;
45548;SDS011;31270;48.328;10.096;2023-05-07T14:36:11;3.20;;;2.90;;